sensor_id;sensor_type;location;lat;lon;timestamp;P1;durP1;ratioP1;P2;durP2;ratioP2
70228;SDS011;57617;51.988;5.854;2023-04-03T00:00:06;2.95;;;1.40;;
70228;SDS011;57617;51.988;5.854;2023-04-03T00:02:32;3.45;;;1.60;;
70228;SDS011;57617;51.988;5.854;2023-04-03T00:04:57;3.50;;;1.50;;
70228;SDS011;57617;51.988;5.854;2023-04-03T00:07:23;3.75;;;1.75;;
70228;SDS011;57617;51.988;5.854;2023-04-03T00:09:48;5.68;;;1.63;;
70228;SDS011;57617;51.988;5.854;2023-04-03T00:12:13;4.70;;;1.58;;
70228;SDS011;57617;51.988;5.854;2023-04-03T00:14:38;2.33;;;1.47;;
70228;SDS011;57617;51.988;5.854;2023-04-03T00:17:04;4.25;;;1.30;;
70228;SDS011;57617;51.988;5.854;2023-04-03T00:19:29;5.05;;;1.80;;
70228;SDS011;57617;51.988;5.854;2023-04-03T00:21:55;5.50;;;1.75;;
70228;SDS011;57617;51.988;5.854;2023-04-03T00:24:20;2.95;;;1.23;;
70228;SDS011;57617;51.988;5.854;2023-04-03T00:26:45;4.53;;;1.50;;
70228;SDS011;57617;51.988;5.854;2023-04-03T00:29:11;4.35;;;1.58;;
70228;SDS011;57617;51.988;5.854;2023-04-03T00:31:36;4.10;;;1.48;;
70228;SDS011;57617;51.988;5.854;2023-04-03T00:34:01;2.67;;;1.42;;
70228;SDS011;57617;51.988;5.854;2023-04-03T00:36:27;4.07;;;1.58;;
70228;SDS011;57617;51.988;5.854;2023-04-03T00:38:52;6.18;;;1.52;;
70228;SDS011;57617;51.988;5.854;2023-04-03T00:41:17;2.60;;;1.45;;
70228;SDS011;57617;51.988;5.854;2023-04-03T00:43:43;5.00;;;1.83;;
70228;SDS011;57617;51.988;5.854;2023-04-03T00:46:08;7.72;;;1.77;;
70228;SDS011;57617;51.988;5.854;2023-04-03T00:48:44;4.00;;;1.55;;
70228;SDS011;57617;51.988;5.854;2023-04-03T00:51:12;3.55;;;1.60;;
70228;SDS011;57617;51.988;5.854;2023-04-03T00:53:50;4.03;;;1.42;;
70228;SDS011;57617;51.988;5.854;2023-04-03T00:56:21;3.92;;;1.50;;
70228;SDS011;57617;51.988;5.854;2023-04-03T00:58:49;3.45;;;1.60;;
70228;SDS011;57617;51.988;5.854;2023-04-03T01:01:20;2.67;;;1.50;;
70228;SDS011;57617;51.988;5.854;2023-04-03T01:03:48;3.35;;;1.48;;
70228;SDS011;57617;51.988;5.854;2023-04-03T01:06:13;5.20;;;1.50;;
70228;SDS011;57617;51.988;5.854;2023-04-03T01:08:41;4.18;;;1.50;;
70228;SDS011;57617;51.988;5.854;2023-04-03T01:11:07;4.20;;;1.45;;
70228;SDS011;57617;51.988;5.854;2023-04-03T01:13:33;4.07;;;1.60;;
70228;SDS011;57617;51.988;5.854;2023-04-03T01:16:03;2.78;;;1.60;;
70228;SDS011;57617;51.988;5.854;2023-04-03T01:18:29;6.35;;;1.92;;
70228;SDS011;57617;51.988;5.854;2023-04-03T01:26:41;4.28;;;1.50;;
70228;SDS011;57617;51.988;5.854;2023-04-03T01:29:06;3.47;;;1.50;;
70228;SDS011;57617;51.988;5.854;2023-04-03T01:34:00;5.53;;;1.77;;
70228;SDS011;57617;51.988;5.854;2023-04-03T01:36:27;5.95;;;1.45;;
70228;SDS011;57617;51.988;5.854;2023-04-03T01:38:55;4.93;;;1.50;;
70228;SDS011;57617;51.988;5.854;2023-04-03T01:41:21;3.05;;;1.52;;
70228;SDS011;57617;51.988;5.854;2023-04-03T01:43:47;3.83;;;1.20;;
70228;SDS011;57617;51.988;5.854;2023-04-03T01:46:14;4.20;;;1.35;;
70228;SDS011;57617;51.988;5.854;2023-04-03T01:48:40;4.85;;;1.48;;
70228;SDS011;57617;51.988;5.854;2023-04-03T01:51:05;3.95;;;1.58;;
70228;SDS011;57617;51.988;5.854;2023-04-03T01:53:31;5.22;;;1.70;;
70228;SDS011;57617;51.988;5.854;2023-04-03T01:55:56;3.88;;;1.35;;
70228;SDS011;57617;51.988;5.854;2023-04-03T01:58:21;8.05;;;1.52;;
70228;SDS011;57617;51.988;5.854;2023-04-03T02:00:47;7.07;;;1.60;;
70228;SDS011;57617;51.988;5.854;2023-04-03T02:03:12;2.28;;;1.25;;
70228;SDS011;57617;51.988;5.854;2023-04-03T02:05:38;2.50;;;1.48;;
70228;SDS011;57617;51.988;5.854;2023-04-03T02:08:03;5.10;;;1.42;;
70228;SDS011;57617;51.988;5.854;2023-04-03T02:10:28;3.17;;;1.20;;
70228;SDS011;57617;51.988;5.854;2023-04-03T02:12:54;4.93;;;1.70;;
70228;SDS011;57617;51.988;5.854;2023-04-03T02:15:19;4.70;;;1.70;;
70228;SDS011;57617;51.988;5.854;2023-04-03T02:17:45;4.15;;;1.40;;
70228;SDS011;57617;51.988;5.854;2023-04-03T02:20:10;3.70;;;1.45;;
70228;SDS011;57617;51.988;5.854;2023-04-03T02:22:35;3.80;;;1.30;;
70228;SDS011;57617;51.988;5.854;2023-04-03T02:25:01;3.92;;;1.48;;
70228;SDS011;57617;51.988;5.854;2023-04-03T02:27:26;6.95;;;1.77;;
70228;SDS011;57617;51.988;5.854;2023-04-03T02:29:52;6.47;;;1.40;;
70228;SDS011;57617;51.988;5.854;2023-04-03T02:32:17;6.85;;;1.65;;
70228;SDS011;57617;51.988;5.854;2023-04-03T02:34:43;4.93;;;1.70;;
70228;SDS011;57617;51.988;5.854;2023-04-03T02:37:08;4.38;;;1.30;;
70228;SDS011;57617;51.988;5.854;2023-04-03T02:39:33;5.60;;;1.52;;
70228;SDS011;57617;51.988;5.854;2023-04-03T02:41:59;5.68;;;1.50;;
70228;SDS011;57617;51.988;5.854;2023-04-03T02:44:24;8.20;;;1.23;;
70228;SDS011;57617;51.988;5.854;2023-04-03T02:46:50;3.45;;;1.40;;
70228;SDS011;57617;51.988;5.854;2023-04-03T02:49:15;3.70;;;1.40;;
70228;SDS011;57617;51.988;5.854;2023-04-03T02:51:40;3.17;;;1.50;;
70228;SDS011;57617;51.988;5.854;2023-04-03T02:54:06;5.37;;;1.50;;
70228;SDS011;57617;51.988;5.854;2023-04-03T02:56:32;3.73;;;1.40;;
70228;SDS011;57617;51.988;5.854;2023-04-03T02:58:57;4.67;;;1.37;;
70228;SDS011;57617;51.988;5.854;2023-04-03T03:01:23;5.25;;;1.58;;
70228;SDS011;57617;51.988;5.854;2023-04-03T03:03:48;3.97;;;1.50;;
70228;SDS011;57617;51.988;5.854;2023-04-03T03:06:14;6.47;;;1.60;;
70228;SDS011;57617;51.988;5.854;2023-04-03T03:08:41;7.40;;;1.70;;
70228;SDS011;57617;51.988;5.854;2023-04-03T03:11:08;3.60;;;1.38;;
70228;SDS011;57617;51.988;5.854;2023-04-03T03:13:34;4.20;;;1.27;;
70228;SDS011;57617;51.988;5.854;2023-04-03T03:16:00;3.40;;;1.38;;
70228;SDS011;57617;51.988;5.854;2023-04-03T03:18:25;4.13;;;1.45;;
70228;SDS011;57617;51.988;5.854;2023-04-03T03:20:51;5.32;;;1.50;;
70228;SDS011;57617;51.988;5.854;2023-04-03T03:23:18;7.50;;;1.80;;
70228;SDS011;57617;51.988;5.854;2023-04-03T03:25:43;5.17;;;1.57;;
70228;SDS011;57617;51.988;5.854;2023-04-03T03:28:08;5.75;;;1.55;;
70228;SDS011;57617;51.988;5.854;2023-04-03T03:30:34;6.10;;;1.60;;
70228;SDS011;57617;51.988;5.854;2023-04-03T03:33:00;5.10;;;1.30;;
70228;SDS011;57617;51.988;5.854;2023-04-03T03:35:25;4.07;;;1.48;;
70228;SDS011;57617;51.988;5.854;2023-04-03T03:37:51;5.97;;;1.70;;
70228;SDS011;57617;51.988;5.854;2023-04-03T03:40:16;3.70;;;1.27;;
70228;SDS011;57617;51.988;5.854;2023-04-03T03:42:42;4.03;;;1.50;;
70228;SDS011;57617;51.988;5.854;2023-04-03T03:45:07;5.23;;;1.70;;
70228;SDS011;57617;51.988;5.854;2023-04-03T03:47:33;3.25;;;1.35;;
70228;SDS011;57617;51.988;5.854;2023-04-03T03:49:58;5.72;;;1.70;;
70228;SDS011;57617;51.988;5.854;2023-04-03T03:52:24;5.07;;;1.60;;
70228;SDS011;57617;51.988;5.854;2023-04-03T03:54:49;4.67;;;1.60;;
70228;SDS011;57617;51.988;5.854;2023-04-03T03:57:15;7.10;;;2.03;;
70228;SDS011;57617;51.988;5.854;2023-04-03T03:59:40;3.07;;;1.47;;
70228;SDS011;57617;51.988;5.854;2023-04-03T04:02:06;5.88;;;1.70;;
70228;SDS011;57617;51.988;5.854;2023-04-03T04:04:32;6.50;;;1.58;;
70228;SDS011;57617;51.988;5.854;2023-04-03T04:06:57;6.80;;;1.80;;
70228;SDS011;57617;51.988;5.854;2023-04-03T04:09:22;5.17;;;1.87;;
70228;SDS011;57617;51.988;5.854;2023-04-03T04:11:48;6.00;;;2.08;;
70228;SDS011;57617;51.988;5.854;2023-04-03T04:14:13;7.07;;;1.97;;
70228;SDS011;57617;51.988;5.854;2023-04-03T04:16:38;6.47;;;1.45;;
70228;SDS011;57617;51.988;5.854;2023-04-03T04:19:04;4.63;;;1.90;;
70228;SDS011;57617;51.988;5.854;2023-04-03T04:21:29;7.10;;;1.83;;
70228;SDS011;57617;51.988;5.854;2023-04-03T04:23:55;6.63;;;1.50;;
70228;SDS011;57617;51.988;5.854;2023-04-03T04:26:20;6.57;;;1.77;;
70228;SDS011;57617;51.988;5.854;2023-04-03T04:28:45;6.67;;;1.60;;
70228;SDS011;57617;51.988;5.854;2023-04-03T04:31:10;5.43;;;1.73;;
70228;SDS011;57617;51.988;5.854;2023-04-03T04:33:36;7.47;;;1.67;;
70228;SDS011;57617;51.988;5.854;2023-04-03T04:36:01;6.60;;;2.00;;
70228;SDS011;57617;51.988;5.854;2023-04-03T04:38:26;6.47;;;1.90;;
70228;SDS011;57617;51.988;5.854;2023-04-03T04:40:51;4.88;;;1.98;;
70228;SDS011;57617;51.988;5.854;2023-04-03T04:43:17;3.42;;;1.60;;
70228;SDS011;57617;51.988;5.854;2023-04-03T04:45:42;4.13;;;1.53;;
70228;SDS011;57617;51.988;5.854;2023-04-03T04:48:08;4.13;;;1.77;;
70228;SDS011;57617;51.988;5.854;2023-04-03T04:50:33;8.30;;;1.87;;
70228;SDS011;57617;51.988;5.854;2023-04-03T04:52:58;7.13;;;2.30;;
70228;SDS011;57617;51.988;5.854;2023-04-03T04:55:24;6.77;;;1.70;;
70228;SDS011;57617;51.988;5.854;2023-04-03T04:57:49;6.60;;;1.90;;
70228;SDS011;57617;51.988;5.854;2023-04-03T05:00:14;6.28;;;1.80;;
70228;SDS011;57617;51.988;5.854;2023-04-03T05:02:40;5.00;;;1.80;;
70228;SDS011;57617;51.988;5.854;2023-04-03T05:05:06;7.90;;;1.90;;
70228;SDS011;57617;51.988;5.854;2023-04-03T05:07:32;8.23;;;2.07;;
70228;SDS011;57617;51.988;5.854;2023-04-03T05:09:57;5.57;;;2.00;;
70228;SDS011;57617;51.988;5.854;2023-04-03T05:12:22;6.68;;;1.83;;
70228;SDS011;57617;51.988;5.854;2023-04-03T05:14:47;5.67;;;1.90;;
70228;SDS011;57617;51.988;5.854;2023-04-03T05:17:13;4.73;;;1.77;;
70228;SDS011;57617;51.988;5.854;2023-04-03T05:19:38;4.67;;;1.70;;
70228;SDS011;57617;51.988;5.854;2023-04-03T05:22:03;4.30;;;1.77;;
70228;SDS011;57617;51.988;5.854;2023-04-03T05:24:29;8.37;;;1.93;;
70228;SDS011;57617;51.988;5.854;2023-04-03T05:26:54;5.50;;;1.77;;
70228;SDS011;57617;51.988;5.854;2023-04-03T05:29:20;9.60;;;2.00;;
70228;SDS011;57617;51.988;5.854;2023-04-03T05:31:46;5.40;;;1.77;;
70228;SDS011;57617;51.988;5.854;2023-04-03T05:34:15;7.53;;;1.70;;
70228;SDS011;57617;51.988;5.854;2023-04-03T05:36:40;4.10;;;1.40;;
70228;SDS011;57617;51.988;5.854;2023-04-03T05:39:06;4.13;;;1.40;;
70228;SDS011;57617;51.988;5.854;2023-04-03T05:41:31;4.43;;;1.53;;
70228;SDS011;57617;51.988;5.854;2023-04-03T05:43:57;3.40;;;1.30;;
70228;SDS011;57617;51.988;5.854;2023-04-03T05:46:22;3.00;;;1.50;;
70228;SDS011;57617;51.988;5.854;2023-04-03T05:48:47;5.00;;;1.80;;
70228;SDS011;57617;51.988;5.854;2023-04-03T05:51:17;6.72;;;1.60;;
70228;SDS011;57617;51.988;5.854;2023-04-03T05:53:46;6.60;;;1.60;;
70228;SDS011;57617;51.988;5.854;2023-04-03T05:56:12;4.80;;;1.67;;
70228;SDS011;57617;51.988;5.854;2023-04-03T05:58:38;7.27;;;1.50;;
70228;SDS011;57617;51.988;5.854;2023-04-03T06:01:04;7.83;;;1.70;;
70228;SDS011;57617;51.988;5.854;2023-04-03T06:03:30;7.63;;;1.83;;
70228;SDS011;57617;51.988;5.854;2023-04-03T06:05:55;9.48;;;1.67;;
70228;SDS011;57617;51.988;5.854;2023-04-03T06:08:21;7.63;;;1.70;;
70228;SDS011;57617;51.988;5.854;2023-04-03T06:10:46;4.77;;;1.50;;
70228;SDS011;57617;51.988;5.854;2023-04-03T06:13:11;5.15;;;1.33;;
70228;SDS011;57617;51.988;5.854;2023-04-03T06:15:37;9.02;;;1.65;;
70228;SDS011;57617;51.988;5.854;2023-04-03T06:18:03;5.45;;;1.90;;
70228;SDS011;57617;51.988;5.854;2023-04-03T06:20:28;5.57;;;1.65;;
70228;SDS011;57617;51.988;5.854;2023-04-03T06:22:54;2.93;;;1.37;;
70228;SDS011;57617;51.988;5.854;2023-04-03T06:25:19;5.38;;;1.40;;
70228;SDS011;57617;51.988;5.854;2023-04-03T06:27:46;5.65;;;1.52;;
70228;SDS011;57617;51.988;5.854;2023-04-03T06:30:11;5.53;;;1.70;;
70228;SDS011;57617;51.988;5.854;2023-04-03T06:32:37;10.80;;;2.03;;
70228;SDS011;57617;51.988;5.854;2023-04-03T06:35:03;10.13;;;1.55;;
70228;SDS011;57617;51.988;5.854;2023-04-03T06:37:29;3.10;;;1.17;;
70228;SDS011;57617;51.988;5.854;2023-04-03T06:39:55;5.88;;;1.40;;
70228;SDS011;57617;51.988;5.854;2023-04-03T06:42:21;5.93;;;1.60;;
70228;SDS011;57617;51.988;5.854;2023-04-03T06:44:47;5.93;;;1.45;;
70228;SDS011;57617;51.988;5.854;2023-04-03T06:47:13;7.43;;;1.40;;
70228;SDS011;57617;51.988;5.854;2023-04-03T06:49:39;8.25;;;1.50;;
70228;SDS011;57617;51.988;5.854;2023-04-03T06:52:04;6.18;;;1.23;;
70228;SDS011;57617;51.988;5.854;2023-04-03T06:54:30;7.40;;;1.30;;
70228;SDS011;57617;51.988;5.854;2023-04-03T06:56:56;4.47;;;1.10;;
70228;SDS011;57617;51.988;5.854;2023-04-03T06:59:21;6.05;;;1.40;;
70228;SDS011;57617;51.988;5.854;2023-04-03T07:01:46;7.25;;;1.42;;
70228;SDS011;57617;51.988;5.854;2023-04-03T07:04:12;5.07;;;1.55;;
70228;SDS011;57617;51.988;5.854;2023-04-03T07:06:37;3.85;;;1.17;;
70228;SDS011;57617;51.988;5.854;2023-04-03T07:09:03;6.57;;;1.40;;
70228;SDS011;57617;51.988;5.854;2023-04-03T07:11:28;7.20;;;1.40;;
70228;SDS011;57617;51.988;5.854;2023-04-03T07:13:53;7.30;;;1.57;;
70228;SDS011;57617;51.988;5.854;2023-04-03T07:16:19;6.13;;;1.25;;
70228;SDS011;57617;51.988;5.854;2023-04-03T07:18:44;3.57;;;1.10;;
70228;SDS011;57617;51.988;5.854;2023-04-03T07:21:10;3.85;;;1.30;;
70228;SDS011;57617;51.988;5.854;2023-04-03T07:23:36;2.83;;;1.20;;
70228;SDS011;57617;51.988;5.854;2023-04-03T07:26:01;5.40;;;1.10;;
70228;SDS011;57617;51.988;5.854;2023-04-03T07:28:27;4.93;;;1.60;;
70228;SDS011;57617;51.988;5.854;2023-04-03T07:30:53;4.17;;;1.20;;
70228;SDS011;57617;51.988;5.854;2023-04-03T07:33:25;1.60;;;0.83;;
70228;SDS011;57617;51.988;5.854;2023-04-03T07:35:51;3.00;;;1.10;;
70228;SDS011;57617;51.988;5.854;2023-04-03T07:38:16;3.90;;;1.10;;
70228;SDS011;57617;51.988;5.854;2023-04-03T07:40:49;3.30;;;1.27;;
70228;SDS011;57617;51.988;5.854;2023-04-03T07:43:16;5.07;;;1.20;;
70228;SDS011;57617;51.988;5.854;2023-04-03T07:45:43;4.60;;;1.30;;
70228;SDS011;57617;51.988;5.854;2023-04-03T07:48:09;3.63;;;1.05;;
70228;SDS011;57617;51.988;5.854;2023-04-03T07:50:39;5.40;;;1.30;;
70228;SDS011;57617;51.988;5.854;2023-04-03T07:53:05;3.55;;;1.10;;
70228;SDS011;57617;51.988;5.854;2023-04-03T07:55:31;3.45;;;1.40;;
70228;SDS011;57617;51.988;5.854;2023-04-03T07:57:56;4.17;;;0.90;;
70228;SDS011;57617;51.988;5.854;2023-04-03T08:00:22;3.90;;;1.00;;
70228;SDS011;57617;51.988;5.854;2023-04-03T08:02:48;4.30;;;1.37;;
70228;SDS011;57617;51.988;5.854;2023-04-03T08:05:15;5.90;;;1.25;;
70228;SDS011;57617;51.988;5.854;2023-04-03T08:07:42;3.03;;;0.90;;
70228;SDS011;57617;51.988;5.854;2023-04-03T08:10:07;5.80;;;0.90;;
70228;SDS011;57617;51.988;5.854;2023-04-03T08:12:33;4.53;;;1.30;;
70228;SDS011;57617;51.988;5.854;2023-04-03T08:14:59;1.55;;;0.60;;
70228;SDS011;57617;51.988;5.854;2023-04-03T08:17:25;2.20;;;0.85;;
70228;SDS011;57617;51.988;5.854;2023-04-03T08:19:51;2.92;;;1.10;;
70228;SDS011;57617;51.988;5.854;2023-04-03T08:22:16;2.53;;;0.90;;
70228;SDS011;57617;51.988;5.854;2023-04-03T08:24:41;2.83;;;0.93;;
70228;SDS011;57617;51.988;5.854;2023-04-03T08:27:07;2.63;;;1.00;;
70228;SDS011;57617;51.988;5.854;2023-04-03T08:29:32;4.65;;;0.90;;
70228;SDS011;57617;51.988;5.854;2023-04-03T08:31:57;1.95;;;0.73;;
70228;SDS011;57617;51.988;5.854;2023-04-03T08:34:23;3.78;;;0.70;;
70228;SDS011;57617;51.988;5.854;2023-04-03T08:36:48;1.50;;;0.60;;
70228;SDS011;57617;51.988;5.854;2023-04-03T08:39:14;1.95;;;0.60;;
70228;SDS011;57617;51.988;5.854;2023-04-03T08:41:40;2.75;;;0.80;;
70228;SDS011;57617;51.988;5.854;2023-04-03T08:47:26;1.40;;;0.68;;
70228;SDS011;57617;51.988;5.854;2023-04-03T08:50:02;2.88;;;0.90;;
70228;SDS011;57617;51.988;5.854;2023-04-03T08:55:33;1.55;;;0.68;;
70228;SDS011;57617;51.988;5.854;2023-04-03T08:58:05;3.80;;;0.50;;
70228;SDS011;57617;51.988;5.854;2023-04-03T09:00:38;2.20;;;0.50;;
70228;SDS011;57617;51.988;5.854;2023-04-03T09:03:14;2.80;;;0.57;;
70228;SDS011;57617;51.988;5.854;2023-04-03T09:05:53;2.13;;;0.50;;
70228;SDS011;57617;51.988;5.854;2023-04-03T09:08:27;1.77;;;0.70;;
70228;SDS011;57617;51.988;5.854;2023-04-03T09:11:06;1.23;;;0.47;;
70228;SDS011;57617;51.988;5.854;2023-04-03T09:13:43;1.27;;;0.50;;
70228;SDS011;57617;51.988;5.854;2023-04-03T09:16:39;1.15;;;0.43;;
70228;SDS011;57617;51.988;5.854;2023-04-03T09:21:42;0.35;;;0.30;;
70228;SDS011;57617;51.988;5.854;2023-04-03T09:24:09;0.80;;;0.45;;
70228;SDS011;57617;51.988;5.854;2023-04-03T09:29:17;2.30;;;0.40;;
70228;SDS011;57617;51.988;5.854;2023-04-03T09:31:44;1.63;;;0.50;;
70228;SDS011;57617;51.988;5.854;2023-04-03T09:34:17;1.20;;;0.40;;
70228;SDS011;57617;51.988;5.854;2023-04-03T09:36:48;1.30;;;0.57;;
70228;SDS011;57617;51.988;5.854;2023-04-03T09:39:26;1.02;;;0.43;;
70228;SDS011;57617;51.988;5.854;2023-04-03T09:44:33;1.27;;;0.40;;
70228;SDS011;57617;51.988;5.854;2023-04-03T09:47:17;1.13;;;0.60;;
70228;SDS011;57617;51.988;5.854;2023-04-03T09:49:50;1.15;;;0.43;;
70228;SDS011;57617;51.988;5.854;2023-04-03T09:52:18;2.20;;;0.40;;
70228;SDS011;57617;51.988;5.854;2023-04-03T09:54:44;1.25;;;0.57;;
70228;SDS011;57617;51.988;5.854;2023-04-03T09:57:11;2.25;;;0.50;;
70228;SDS011;57617;51.988;5.854;2023-04-03T09:59:45;0.93;;;0.50;;
70228;SDS011;57617;51.988;5.854;2023-04-03T10:04:59;3.30;;;0.50;;
70228;SDS011;57617;51.988;5.854;2023-04-03T10:07:29;5.75;;;0.75;;
70228;SDS011;57617;51.988;5.854;2023-04-03T10:10:10;2.35;;;0.60;;
70228;SDS011;57617;51.988;5.854;2023-04-03T10:12:42;3.67;;;0.70;;
70228;SDS011;57617;51.988;5.854;2023-04-03T10:15:11;2.88;;;0.50;;
70228;SDS011;57617;51.988;5.854;2023-04-03T10:17:47;1.27;;;0.60;;
70228;SDS011;57617;51.988;5.854;2023-04-03T10:28:56;1.58;;;0.70;;
70228;SDS011;57617;51.988;5.854;2023-04-03T10:39:30;1.98;;;0.70;;
70228;SDS011;57617;51.988;5.854;2023-04-03T10:42:14;1.88;;;0.60;;
70228;SDS011;57617;51.988;5.854;2023-04-03T10:47:37;1.63;;;0.70;;
70228;SDS011;57617;51.988;5.854;2023-04-03T10:50:29;2.08;;;0.80;;
70228;SDS011;57617;51.988;5.854;2023-04-03T10:53:14;2.30;;;0.80;;
70228;SDS011;57617;51.988;5.854;2023-04-03T10:55:50;3.30;;;0.85;;
70228;SDS011;57617;51.988;5.854;2023-04-03T10:58:28;1.25;;;0.70;;
70228;SDS011;57617;51.988;5.854;2023-04-03T11:01:00;2.70;;;0.80;;
70228;SDS011;57617;51.988;5.854;2023-04-03T11:03:35;1.50;;;0.70;;
70228;SDS011;57617;51.988;5.854;2023-04-03T11:06:07;1.90;;;0.77;;
70228;SDS011;57617;51.988;5.854;2023-04-03T11:08:39;1.25;;;0.60;;
70228;SDS011;57617;51.988;5.854;2023-04-03T11:11:17;2.47;;;0.75;;
70228;SDS011;57617;51.988;5.854;2023-04-03T11:16:31;1.90;;;0.80;;
70228;SDS011;57617;51.988;5.854;2023-04-03T11:19:05;1.35;;;0.68;;
70228;SDS011;57617;51.988;5.854;2023-04-03T11:21:44;2.42;;;0.90;;
70228;SDS011;57617;51.988;5.854;2023-04-03T11:24:22;1.88;;;0.82;;
70228;SDS011;57617;51.988;5.854;2023-04-03T11:26:50;1.23;;;0.60;;
70228;SDS011;57617;51.988;5.854;2023-04-03T11:29:25;3.10;;;1.10;;
70228;SDS011;57617;51.988;5.854;2023-04-03T11:37:04;3.85;;;1.10;;
70228;SDS011;57617;51.988;5.854;2023-04-03T11:39:53;2.30;;;0.88;;
70228;SDS011;57617;51.988;5.854;2023-04-03T11:42:38;2.35;;;0.57;;
70228;SDS011;57617;51.988;5.854;2023-04-03T11:47:55;3.35;;;0.70;;
70228;SDS011;57617;51.988;5.854;2023-04-03T11:53:42;3.55;;;0.70;;
70228;SDS011;57617;51.988;5.854;2023-04-03T11:56:35;1.92;;;0.73;;
70228;SDS011;57617;51.988;5.854;2023-04-03T12:01:42;2.65;;;0.60;;
70228;SDS011;57617;51.988;5.854;2023-04-03T12:04:10;2.17;;;0.77;;
70228;SDS011;57617;51.988;5.854;2023-04-03T12:09:19;2.22;;;0.70;;
70228;SDS011;57617;51.988;5.854;2023-04-03T12:11:49;1.77;;;0.80;;
70228;SDS011;57617;51.988;5.854;2023-04-03T12:14:16;1.33;;;0.60;;
70228;SDS011;57617;51.988;5.854;2023-04-03T12:16:42;2.00;;;0.75;;
70228;SDS011;57617;51.988;5.854;2023-04-03T12:26:46;2.20;;;0.80;;
70228;SDS011;57617;51.988;5.854;2023-04-03T12:37:17;2.72;;;0.88;;
70228;SDS011;57617;51.988;5.854;2023-04-03T12:39:51;2.78;;;0.90;;
70228;SDS011;57617;51.988;5.854;2023-04-03T12:45:21;2.95;;;0.80;;
70228;SDS011;57617;51.988;5.854;2023-04-03T12:47:49;2.22;;;0.95;;
70228;SDS011;57617;51.988;5.854;2023-04-03T12:50:18;3.00;;;0.80;;
70228;SDS011;57617;51.988;5.854;2023-04-03T12:52:59;2.70;;;0.90;;
70228;SDS011;57617;51.988;5.854;2023-04-03T12:55:27;2.13;;;0.70;;
70228;SDS011;57617;51.988;5.854;2023-04-03T12:57:53;2.70;;;0.80;;
70228;SDS011;57617;51.988;5.854;2023-04-03T13:00:19;1.98;;;0.73;;
70228;SDS011;57617;51.988;5.854;2023-04-03T13:02:54;2.00;;;0.80;;
70228;SDS011;57617;51.988;5.854;2023-04-03T13:05:21;3.70;;;0.90;;
70228;SDS011;57617;51.988;5.854;2023-04-03T13:08:02;1.80;;;0.90;;
70228;SDS011;57617;51.988;5.854;2023-04-03T13:10:30;3.42;;;0.88;;
70228;SDS011;57617;51.988;5.854;2023-04-03T13:12:58;3.30;;;0.82;;
70228;SDS011;57617;51.988;5.854;2023-04-03T13:15:45;1.70;;;0.98;;
70228;SDS011;57617;51.988;5.854;2023-04-03T13:21:15;4.45;;;1.27;;
70228;SDS011;57617;51.988;5.854;2023-04-03T13:23:45;4.13;;;1.13;;
70228;SDS011;57617;51.988;5.854;2023-04-03T13:26:15;4.55;;;1.25;;
70228;SDS011;57617;51.988;5.854;2023-04-03T13:28:42;2.55;;;0.85;;
70228;SDS011;57617;51.988;5.854;2023-04-03T13:33:38;3.25;;;1.00;;
70228;SDS011;57617;51.988;5.854;2023-04-03T13:36:26;3.08;;;1.10;;
70228;SDS011;57617;51.988;5.854;2023-04-03T13:41:33;4.07;;;0.90;;
70228;SDS011;57617;51.988;5.854;2023-04-03T13:46:51;3.15;;;0.95;;
70228;SDS011;57617;51.988;5.854;2023-04-03T13:52:17;2.60;;;0.90;;
70228;SDS011;57617;51.988;5.854;2023-04-03T13:54:51;2.10;;;0.95;;
70228;SDS011;57617;51.988;5.854;2023-04-03T13:57:24;3.10;;;1.10;;
70228;SDS011;57617;51.988;5.854;2023-04-03T13:59:50;2.85;;;1.10;;
70228;SDS011;57617;51.988;5.854;2023-04-03T14:02:38;3.53;;;0.95;;
70228;SDS011;57617;51.988;5.854;2023-04-03T14:05:04;3.25;;;1.17;;
70228;SDS011;57617;51.988;5.854;2023-04-03T14:07:33;2.20;;;1.05;;
70228;SDS011;57617;51.988;5.854;2023-04-03T14:09:58;2.45;;;1.10;;
70228;SDS011;57617;51.988;5.854;2023-04-03T14:12:34;3.75;;;1.20;;
70228;SDS011;57617;51.988;5.854;2023-04-03T14:15:03;2.22;;;1.27;;
70228;SDS011;57617;51.988;5.854;2023-04-03T14:17:30;3.05;;;1.10;;
70228;SDS011;57617;51.988;5.854;2023-04-03T14:19:56;2.85;;;1.50;;
70228;SDS011;57617;51.988;5.854;2023-04-03T14:22:24;2.33;;;1.35;;
70228;SDS011;57617;51.988;5.854;2023-04-03T14:24:54;2.92;;;1.00;;
70228;SDS011;57617;51.988;5.854;2023-04-03T14:29:52;3.22;;;1.10;;
70228;SDS011;57617;51.988;5.854;2023-04-03T14:32:19;4.03;;;1.52;;
70228;SDS011;57617;51.988;5.854;2023-04-03T14:34:46;1.90;;;1.10;;
70228;SDS011;57617;51.988;5.854;2023-04-03T14:37:14;4.53;;;1.20;;
70228;SDS011;57617;51.988;5.854;2023-04-03T14:39:44;4.78;;;1.38;;
70228;SDS011;57617;51.988;5.854;2023-04-03T14:42:11;2.42;;;1.20;;
70228;SDS011;57617;51.988;5.854;2023-04-03T14:44:39;2.55;;;1.27;;
70228;SDS011;57617;51.988;5.854;2023-04-03T14:47:05;2.67;;;1.23;;
70228;SDS011;57617;51.988;5.854;2023-04-03T14:49:33;5.25;;;1.30;;
70228;SDS011;57617;51.988;5.854;2023-04-03T14:51:59;3.33;;;1.30;;
70228;SDS011;57617;51.988;5.854;2023-04-03T14:54:25;4.30;;;1.35;;
70228;SDS011;57617;51.988;5.854;2023-04-03T14:56:52;3.33;;;1.20;;
70228;SDS011;57617;51.988;5.854;2023-04-03T14:59:22;2.65;;;1.20;;
70228;SDS011;57617;51.988;5.854;2023-04-03T15:01:48;5.22;;;1.17;;
70228;SDS011;57617;51.988;5.854;2023-04-03T15:04:17;3.75;;;1.27;;
70228;SDS011;57617;51.988;5.854;2023-04-03T15:06:44;4.63;;;1.25;;
70228;SDS011;57617;51.988;5.854;2023-04-03T15:09:22;6.32;;;1.58;;
70228;SDS011;57617;51.988;5.854;2023-04-03T15:11:50;2.83;;;1.20;;
70228;SDS011;57617;51.988;5.854;2023-04-03T15:14:16;4.20;;;1.25;;
70228;SDS011;57617;51.988;5.854;2023-04-03T15:16:42;4.95;;;1.50;;
70228;SDS011;57617;51.988;5.854;2023-04-03T15:19:08;2.80;;;1.27;;
70228;SDS011;57617;51.988;5.854;2023-04-03T15:21:33;2.33;;;1.20;;
70228;SDS011;57617;51.988;5.854;2023-04-03T15:23:58;2.40;;;1.20;;
70228;SDS011;57617;51.988;5.854;2023-04-03T15:26:24;4.65;;;1.30;;
70228;SDS011;57617;51.988;5.854;2023-04-03T15:28:50;3.45;;;1.10;;
70228;SDS011;57617;51.988;5.854;2023-04-03T15:31:15;4.25;;;1.40;;
70228;SDS011;57617;51.988;5.854;2023-04-03T15:33:41;4.47;;;1.10;;
70228;SDS011;57617;51.988;5.854;2023-04-03T15:36:06;3.20;;;1.10;;
70228;SDS011;57617;51.988;5.854;2023-04-03T15:38:32;3.80;;;1.40;;
70228;SDS011;57617;51.988;5.854;2023-04-03T15:41:02;4.53;;;1.50;;
70228;SDS011;57617;51.988;5.854;2023-04-03T15:43:28;5.78;;;1.50;;
70228;SDS011;57617;51.988;5.854;2023-04-03T15:45:55;2.88;;;1.27;;
70228;SDS011;57617;51.988;5.854;2023-04-03T15:48:23;7.28;;;1.50;;
70228;SDS011;57617;51.988;5.854;2023-04-03T15:50:50;3.53;;;1.40;;
70228;SDS011;57617;51.988;5.854;2023-04-03T15:53:16;3.80;;;1.20;;
70228;SDS011;57617;51.988;5.854;2023-04-03T15:55:41;3.20;;;1.20;;
70228;SDS011;57617;51.988;5.854;2023-04-03T15:58:07;2.80;;;1.30;;
70228;SDS011;57617;51.988;5.854;2023-04-03T16:00:32;2.90;;;1.13;;
70228;SDS011;57617;51.988;5.854;2023-04-03T16:03:05;3.45;;;1.50;;
70228;SDS011;57617;51.988;5.854;2023-04-03T16:05:35;3.08;;;1.20;;
70228;SDS011;57617;51.988;5.854;2023-04-03T16:08:02;3.28;;;1.20;;
70228;SDS011;57617;51.988;5.854;2023-04-03T16:10:28;4.15;;;1.48;;
70228;SDS011;57617;51.988;5.854;2023-04-03T16:12:53;3.00;;;1.10;;
70228;SDS011;57617;51.988;5.854;2023-04-03T16:15:19;5.30;;;1.50;;
70228;SDS011;57617;51.988;5.854;2023-04-03T16:17:44;2.92;;;1.30;;
70228;SDS011;57617;51.988;5.854;2023-04-03T16:20:10;4.13;;;1.35;;
70228;SDS011;57617;51.988;5.854;2023-04-03T16:22:38;3.58;;;1.50;;
70228;SDS011;57617;51.988;5.854;2023-04-03T16:25:04;3.13;;;1.25;;
70228;SDS011;57617;51.988;5.854;2023-04-03T16:27:31;4.68;;;1.33;;
70228;SDS011;57617;51.988;5.854;2023-04-03T16:29:57;8.13;;;2.65;;